Time,TemperatureF,DewpointF,PressureIn,WindDirection,WindDirectionDegrees,WindSpeedMPH,WindSpeedGustMPH,Humidity,HourlyPrecipIn,Conditions,Clouds,dailyrainin,SoftwareType,DateUTC
2013-04-14 00:02:00,25.0,19.0,30.01,West,268,0.0,0.0,78,0.00,,,0.00,,2013-04-14 05:02:00,
2013-04-14 00:12:00,25.0,19.0,30.01,West,268,0.0,0.0,78,0.00,,,0.00,,2013-04-14 05:12:00,
2013-04-14 00:22:00,24.0,18.0,30.00,West,268,0.0,1.0,79,0.00,,,0.00,,2013-04-14 05:22:00,
2013-04-14 00:32:00,24.0,18.0,30.00,West,268,0.0,1.0,79,0.00,,,0.00,,2013-04-14 05:32:00,
2013-04-14 00:42:00,24.0,18.0,30.00,West,268,0.0,1.0,79,0.00,,,0.00,,2013-04-14 05:42:00,
2013-04-14 00:52:00,26.0,20.0,29.98,West,268,0.0,1.0,78,0.00,,,0.00,,2013-04-14 05:52:00,
2013-04-14 01:02:00,26.0,20.0,29.98,West,268,0.0,1.0,78,0.00,,,0.00,,2013-04-14 06:02:00,
2013-04-14 01:12:00,26.0,20.0,29.98,West,268,0.0,1.0,78,0.00,,,0.00,,2013-04-14 06:12:00,
2013-04-14 01:22:00,26.0,19.0,29.99,West,268,0.0,1.0,76,0.00,,,0.00,,2013-04-14 06:22:00,
2013-04-14 01:32:00,26.0,19.0,29.99,West,268,0.0,1.0,76,0.00,,,0.00,,2013-04-14 06:32:00,
2013-04-14 01:42:00,26.0,19.0,29.99,West,268,0.0,1.0,76,0.00,,,0.00,,2013-04-14 06:42:00,
2013-04-14 01:52:00,27.0,20.0,29.98,West,268,0.0,1.0,75,0.00,,,0.00,,2013-04-14 06:52:00,
2013-04-14 02:02:00,27.0,20.0,29.98,West,268,0.0,1.0,75,0.00,,,0.00,,2013-04-14 07:02:00,
2013-04-14 02:12:00,27.0,20.0,29.98,West,268,0.0,1.0,75,0.00,,,0.00,,2013-04-14 07:12:00,
2013-04-14 02:22:00,28.0,21.0,29.98,West,268,0.0,2.0,74,0.00,,,0.00,,2013-04-14 07:22:00,
2013-04-14 02:32:00,28.0,21.0,29.98,West,268,0.0,2.0,74,0.00,,,0.00,,2013-04-14 07:32:00,
2013-04-14 02:42:00,28.0,21.0,29.98,West,268,0.0,2.0,74,0.00,,,0.00,,2013-04-14 07:42:00,
2013-04-14 02:52:00,28.0,20.0,29.94,West,270,1.0,3.0,73,0.00,,,0.00,,2013-04-14 07:52:00,
2013-04-14 03:02:00,28.0,20.0,29.94,West,270,1.0,3.0,73,0.00,,,0.00,,2013-04-14 08:02:00,
2013-04-14 03:12:00,28.0,20.0,29.94,West,270,1.0,3.0,73,0.00,,,0.00,,2013-04-14 08:12:00,
2013-04-14 03:22:00,28.0,20.0,29.95,West,273,0.0,4.0,72,0.00,,,0.00,,2013-04-14 08:22:00,
2013-04-14 03:32:00,28.0,20.0,29.95,West,273,0.0,4.0,72,0.00,,,0.00,,2013-04-14 08:32:00,
2013-04-14 03:43:00,28.0,20.0,29.95,West,273,0.0,4.0,72,0.00,,,0.00,,2013-04-14 08:43:00,
2013-04-14 03:52:00,28.0,20.0,29.94,West,273,0.0,3.0,72,0.00,,,0.00,,2013-04-14 08:52:00,
2013-04-14 04:02:00,28.0,20.0,29.94,West,273,0.0,3.0,72,0.00,,,0.00,,2013-04-14 09:02:00,
2013-04-14 04:12:00,28.0,20.0,29.94,West,273,0.0,3.0,72,0.00,,,0.00,,2013-04-14 09:12:00,
2013-04-14 04:22:00,29.0,20.0,29.94,WNW,288,0.0,5.0,70,0.00,,,0.00,,2013-04-14 09:22:00,
2013-04-14 04:32:00,29.0,20.0,29.94,WNW,288,0.0,5.0,70,0.00,,,0.00,,2013-04-14 09:32:00,
2013-04-14 04:43:00,29.0,20.0,29.94,WNW,288,0.0,5.0,70,0.00,,,0.00,,2013-04-14 09:43:00,
2013-04-14 04:53:00,29.0,20.0,29.94,ENE,74,0.0,6.0,69,0.00,,,0.00,,2013-04-14 09:53:00,
2013-04-14 05:03:00,29.0,20.0,29.94,ENE,74,0.0,6.0,69,0.00,,,0.00,,2013-04-14 10:03:00,
2013-04-14 05:12:00,29.0,20.0,29.94,ENE,74,0.0,6.0,69,0.00,,,0.00,,2013-04-14 10:12:00,
2013-04-14 05:23:00,30.0,20.0,29.95,ENE,78,2.0,7.0,67,0.00,,,0.00,,2013-04-14 10:23:00,
2013-04-14 05:32:00,30.0,20.0,29.95,ENE,78,2.0,7.0,67,0.00,,,0.00,,2013-04-14 10:32:00,
2013-04-14 05:43:00,30.0,20.0,29.95,ENE,78,2.0,7.0,67,0.00,,,0.00,,2013-04-14 10:43:00,
2013-04-14 05:52:00,29.0,20.0,29.94,ENE,74,2.0,6.0,68,0.00,,,0.00,,2013-04-14 10:52:00,
2013-04-14 06:02:00,29.0,20.0,29.94,ENE,74,2.0,6.0,68,0.00,,,0.00,,2013-04-14 11:02:00,
2013-04-14 06:12:00,29.0,20.0,29.94,ENE,74,2.0,6.0,68,0.00,,,0.00,,2013-04-14 11:12:00,
2013-04-14 06:22:00,29.0,20.0,29.93,ENE,60,5.0,8.0,69,0.00,,,0.00,,2013-04-14 11:22:00,
2013-04-14 06:32:00,29.0,20.0,29.93,ENE,60,5.0,8.0,69,0.00,,,0.00,,2013-04-14 11:32:00,
2013-04-14 06:42:00,29.0,20.0,29.93,ENE,60,5.0,8.0,69,0.00,,,0.00,,2013-04-14 11:42:00,
2013-04-14 06:53:00,29.0,20.0,29.92,ENE,64,3.0,8.0,70,0.00,,,0.00,,2013-04-14 11:53:00,
2013-04-14 07:02:00,29.0,20.0,29.92,ENE,64,3.0,8.0,70,0.00,,,0.00,,2013-04-14 12:02:00,
2013-04-14 07:12:00,29.0,20.0,29.92,ENE,64,3.0,8.0,70,0.00,,,0.00,,2013-04-14 12:12:00,
2013-04-14 07:22:00,29.0,21.0,29.92,East,88,3.0,9.0,72,0.00,,,0.00,,2013-04-14 12:22:00,
2013-04-14 07:32:00,29.0,21.0,29.92,East,88,3.0,9.0,72,0.00,,,0.00,,2013-04-14 12:32:00,
2013-04-14 07:42:00,29.0,21.0,29.92,East,88,3.0,9.0,72,0.00,,,0.00,,2013-04-14 12:42:00,
2013-04-14 07:52:00,28.0,21.0,29.91,ENE,72,2.0,9.0,76,0.00,,,0.00,,2013-04-14 12:52:00,
2013-04-14 08:02:00,28.0,21.0,29.91,ENE,72,2.0,9.0,76,0.00,,,0.00,,2013-04-14 13:02:00,
2013-04-14 08:12:00,28.0,21.0,29.91,ENE,72,2.0,9.0,76,0.00,,,0.00,,2013-04-14 13:12:00,
2013-04-14 08:22:00,29.0,23.0,29.89,ENE,78,3.0,11.0,77,0.00,,,0.00,,2013-04-14 13:22:00,
2013-04-14 08:32:00,29.0,23.0,29.89,ENE,78,3.0,11.0,77,0.00,,,0.00,,2013-04-14 13:32:00,
2013-04-14 08:43:00,29.0,23.0,29.89,ENE,78,3.0,11.0,77,0.00,,,0.00,,2013-04-14 13:43:00,
2013-04-14 08:52:00,30.0,22.0,29.88,ESE,104,7.0,15.0,73,0.00,,,0.00,,2013-04-14 13:52:00,
2013-04-14 09:02:00,30.0,22.0,29.88,ESE,104,7.0,15.0,73,0.00,,,0.00,,2013-04-14 14:02:00,
2013-04-14 09:12:00,31.0,22.0,29.85,ENE,72,1.0,17.0,70,0.00,,,0.00,,2013-04-14 14:12:00,
2013-04-14 09:22:00,31.0,22.0,29.85,ENE,72,1.0,17.0,70,0.00,,,0.00,,2013-04-14 14:22:00,
2013-04-14 09:32:00,31.0,22.0,29.85,ENE,72,1.0,17.0,70,0.00,,,0.00,,2013-04-14 14:32:00,
2013-04-14 09:42:00,31.0,22.0,29.85,ENE,72,1.0,17.0,70,0.00,,,0.00,,2013-04-14 14:42:00,
2013-04-14 09:53:00,31.0,21.0,29.83,ENE,75,10.0,22.0,67,0.00,,,0.00,,2013-04-14 14:53:00,
2013-04-14 10:02:00,31.0,21.0,29.83,ENE,75,10.0,22.0,67,0.00,,,0.00,,2013-04-14 15:02:00,
2013-04-14 10:12:00,31.0,21.0,29.83,ENE,75,10.0,22.0,67,0.00,,,0.00,,2013-04-14 15:12:00,
2013-04-14 10:22:00,32.0,21.0,29.83,ENE,75,3.0,19.0,63,0.00,,,0.00,,2013-04-14 15:22:00,
2013-04-14 10:33:00,32.0,21.0,29.83,ENE,75,3.0,19.0,63,0.00,,,0.00,,2013-04-14 15:33:00,
2013-04-14 10:43:00,32.0,21.0,29.83,ENE,75,3.0,19.0,63,0.00,,,0.00,,2013-04-14 15:43:00,
2013-04-14 10:53:00,32.0,22.0,29.81,ESE,110,4.0,15.0,66,0.00,,,0.00,,2013-04-14 15:53:00,
2013-04-14 11:04:00,32.0,22.0,29.81,ESE,110,4.0,15.0,66,0.00,,,0.00,,2013-04-14 16:04:00,
2013-04-14 11:13:00,32.0,22.0,29.81,ESE,110,4.0,15.0,66,0.00,,,0.00,,2013-04-14 16:13:00,
2013-04-14 11:22:00,32.0,24.0,29.78,ENE,64,5.0,18.0,71,0.00,,,0.00,,2013-04-14 16:22:00,
2013-04-14 11:32:00,32.0,24.0,29.78,ENE,64,5.0,18.0,71,0.00,,,0.00,,2013-04-14 16:32:00,
2013-04-14 11:43:00,32.0,24.0,29.78,ENE,64,5.0,18.0,71,0.00,,,0.00,,2013-04-14 16:43:00,
2013-04-14 11:53:00,32.0,25.0,29.78,ENE,58,6.0,19.0,74,0.00,,,0.00,,2013-04-14 16:53:00,
2013-04-14 12:02:00,32.0,25.0,29.78,ENE,58,6.0,19.0,74,0.00,,,0.00,,2013-04-14 17:02:00,
2013-04-14 12:12:00,32.0,25.0,29.78,ENE,58,6.0,19.0,74,0.00,,,0.00,,2013-04-14 17:12:00,
2013-04-14 12:22:00,32.0,25.0,29.80,ESE,107,5.0,22.0,75,0.00,,,0.00,,2013-04-14 17:22:00,
2013-04-14 12:32:00,32.0,25.0,29.80,ESE,107,5.0,22.0,75,0.00,,,0.00,,2013-04-14 17:32:00,
2013-04-14 12:42:00,32.0,25.0,29.80,ESE,107,5.0,22.0,75,0.00,,,0.00,,2013-04-14 17:42:00,
2013-04-14 12:53:00,31.0,26.0,29.78,East,91,5.0,22.0,82,0.00,,,0.00,,2013-04-14 17:53:00,
2013-04-14 13:02:00,31.0,26.0,29.78,East,91,5.0,22.0,82,0.00,,,0.00,,2013-04-14 18:02:00,
2013-04-14 13:12:00,31.0,26.0,29.78,East,91,5.0,22.0,82,0.00,,,0.00,,2013-04-14 18:12:00,
2013-04-14 13:22:00,31.0,27.0,29.75,ENE,71,9.0,21.0,85,0.00,,,0.00,,2013-04-14 18:22:00,
2013-04-14 13:32:00,31.0,27.0,29.75,ENE,71,9.0,21.0,85,0.00,,,0.00,,2013-04-14 18:32:00,
2013-04-14 13:43:00,31.0,27.0,29.75,ENE,71,9.0,21.0,85,0.00,,,0.00,,2013-04-14 18:43:00,
2013-04-14 13:53:00,31.0,28.0,29.73,East,85,8.0,22.0,87,0.00,,,0.00,,2013-04-14 18:53:00,
2013-04-14 14:03:00,31.0,28.0,29.73,East,85,8.0,22.0,87,0.00,,,0.00,,2013-04-14 19:03:00,
2013-04-14 14:12:00,31.0,28.0,29.73,East,85,8.0,22.0,87,0.00,,,0.00,,2013-04-14 19:12:00,
2013-04-14 14:22:00,32.0,29.0,29.72,ENE,72,8.0,18.0,87,0.00,,,0.00,,2013-04-14 19:22:00,
2013-04-14 14:32:00,32.0,29.0,29.72,ENE,72,8.0,18.0,87,0.00,,,0.00,,2013-04-14 19:32:00,
2013-04-14 14:43:00,32.0,29.0,29.72,ENE,72,8.0,18.0,87,0.00,,,0.00,,2013-04-14 19:43:00,
2013-04-14 14:52:00,32.0,29.0,29.71,ENE,69,0.0,18.0,87,0.00,,,0.00,,2013-04-14 19:52:00,
2013-04-14 15:02:00,32.0,29.0,29.71,ENE,69,0.0,18.0,87,0.00,,,0.00,,2013-04-14 20:02:00,
2013-04-14 15:13:00,32.0,29.0,29.71,ENE,69,0.0,18.0,87,0.00,,,0.00,,2013-04-14 20:13:00,
2013-04-14 15:22:00,32.0,29.0,29.70,ENE,69,0.0,0.0,88,0.00,,,0.00,,2013-04-14 20:22:00,
2013-04-14 15:33:00,32.0,29.0,29.70,ENE,69,0.0,0.0,88,0.00,,,0.00,,2013-04-14 20:33:00,
2013-04-14 15:43:00,32.0,29.0,29.70,ENE,69,0.0,0.0,88,0.00,,,0.00,,2013-04-14 20:43:00,
2013-04-14 15:52:00,32.0,29.0,29.66,ENE,69,0.0,0.0,88,0.00,,,0.00,,2013-04-14 20:52:00,
2013-04-14 16:02:00,32.0,29.0,29.66,ENE,69,0.0,0.0,88,0.00,,,0.00,,2013-04-14 21:02:00,
2013-04-14 16:12:00,32.0,29.0,29.66,ENE,69,0.0,0.0,88,0.00,,,0.00,,2013-04-14 21:12:00,
2013-04-14 16:23:00,32.0,29.0,29.65,ENE,69,0.0,0.0,88,0.00,,,0.00,,2013-04-14 21:23:00,
2013-04-14 16:33:00,32.0,29.0,29.65,ENE,69,0.0,0.0,88,0.00,,,0.00,,2013-04-14 21:33:00,
2013-04-14 16:43:00,32.0,29.0,29.65,ENE,69,0.0,0.0,88,0.00,,,0.00,,2013-04-14 21:43:00,
2013-04-14 16:53:00,32.0,29.0,29.63,ENE,69,0.0,0.0,88,0.00,,,0.00,,2013-04-14 21:53:00,
2013-04-14 17:03:00,32.0,29.0,29.63,ENE,69,0.0,0.0,88,0.00,,,0.00,,2013-04-14 22:03:00,
2013-04-14 17:13:00,32.0,29.0,29.63,ENE,69,0.0,0.0,88,0.00,,,0.00,,2013-04-14 22:13:00,
2013-04-14 17:23:00,32.0,29.0,29.61,ENE,69,0.0,0.0,88,0.00,,,0.00,,2013-04-14 22:23:00,
2013-04-14 17:32:00,32.0,29.0,29.61,ENE,69,0.0,0.0,88,0.00,,,0.00,,2013-04-14 22:32:00,
2013-04-14 17:44:00,32.0,29.0,29.61,ENE,69,0.0,0.0,88,0.00,,,0.00,,2013-04-14 22:44:00,
2013-04-14 17:53:00,32.0,29.0,29.60,ENE,69,0.0,0.0,89,0.00,,,0.00,,2013-04-14 22:53:00,
2013-04-14 18:02:00,32.0,29.0,29.60,ENE,69,0.0,0.0,89,0.00,,,0.00,,2013-04-14 23:02:00,
2013-04-14 18:12:00,32.0,29.0,29.60,ENE,69,0.0,0.0,89,0.00,,,0.00,,2013-04-14 23:12:00,
2013-04-14 18:22:00,32.0,29.0,29.59,ENE,69,0.0,0.0,89,0.00,,,0.00,,2013-04-14 23:22:00,
2013-04-14 18:32:00,32.0,29.0,29.59,ENE,69,0.0,0.0,89,0.00,,,0.00,,2013-04-14 23:32:00,
2013-04-14 18:43:00,32.0,29.0,29.59,ENE,69,0.0,0.0,89,0.00,,,0.00,,2013-04-14 23:43:00,
2013-04-14 18:53:00,33.0,30.0,29.58,ENE,69,0.0,0.0,89,0.00,,,0.00,,2013-04-14 23:53:00,
2013-04-14 19:02:00,33.0,30.0,29.58,ENE,69,0.0,0.0,89,0.00,,,0.00,,2013-04-15 00:02:00,
2013-04-14 19:12:00,33.0,30.0,29.58,ENE,69,0.0,0.0,89,0.00,,,0.00,,2013-04-15 00:12:00,
2013-04-14 19:22:00,33.0,30.0,29.58,ENE,69,0.0,0.0,90,0.00,,,0.00,,2013-04-15 00:22:00,
2013-04-14 19:32:00,33.0,30.0,29.58,ENE,69,0.0,0.0,90,0.00,,,0.00,,2013-04-15 00:32:00,
2013-04-14 19:42:00,33.0,30.0,29.57,ENE,70,0.0,0.0,90,0.00,,,0.00,,2013-04-15 00:42:00,
2013-04-14 19:52:00,33.0,30.0,29.57,ENE,70,0.0,0.0,90,0.00,,,0.00,,2013-04-15 00:52:00,
2013-04-14 20:02:00,33.0,30.0,29.57,ENE,70,0.0,0.0,90,0.00,,,0.00,,2013-04-15 01:02:00,
2013-04-14 20:12:00,33.0,30.0,29.57,ENE,70,0.0,0.0,90,0.00,,,0.00,,2013-04-15 01:12:00,
2013-04-14 20:23:00,33.0,30.0,29.57,ENE,70,0.0,0.0,90,0.00,,,0.00,,2013-04-15 01:23:00,
2013-04-14 20:32:00,33.0,30.0,29.57,ENE,70,0.0,0.0,90,0.00,,,0.00,,2013-04-15 01:32:00,
2013-04-14 20:42:00,33.0,30.0,29.57,ENE,70,0.0,0.0,90,0.00,,,0.00,,2013-04-15 01:42:00,
2013-04-14 20:52:00,33.0,30.0,29.56,ENE,71,0.0,0.0,90,0.00,,,0.00,,2013-04-15 01:52:00,
2013-04-14 21:02:00,33.0,30.0,29.56,ENE,71,0.0,0.0,90,0.00,,,0.00,,2013-04-15 02:02:00,
2013-04-14 21:12:00,33.0,30.0,29.56,ENE,71,0.0,0.0,90,0.00,,,0.00,,2013-04-15 02:12:00,
2013-04-14 21:22:00,33.0,30.0,29.56,ENE,73,0.0,0.0,90,0.00,,,0.00,,2013-04-15 02:22:00,
2013-04-14 21:32:00,33.0,30.0,29.56,ENE,73,0.0,0.0,90,0.00,,,0.00,,2013-04-15 02:32:00,
2013-04-14 21:42:00,33.0,30.0,29.56,ENE,73,0.0,0.0,90,0.00,,,0.00,,2013-04-15 02:42:00,
2013-04-14 21:53:00,33.0,30.0,29.57,ENE,78,0.0,0.0,90,0.00,,,0.00,,2013-04-15 02:53:00,
2013-04-14 22:02:00,33.0,30.0,29.57,ENE,78,0.0,0.0,90,0.00,,,0.00,,2013-04-15 03:02:00,
2013-04-14 22:12:00,33.0,30.0,29.57,ENE,78,0.0,0.0,90,0.00,,,0.00,,2013-04-15 03:12:00,
2013-04-14 22:22:00,33.0,30.0,29.58,East,81,0.0,0.0,90,0.00,,,0.00,,2013-04-15 03:22:00,
2013-04-14 22:32:00,33.0,30.0,29.58,East,81,0.0,0.0,90,0.00,,,0.00,,2013-04-15 03:32:00,
2013-04-14 22:43:00,33.0,30.0,29.58,East,81,0.0,0.0,90,0.00,,,0.00,,2013-04-15 03:43:00,
2013-04-14 22:55:00,33.0,31.0,29.57,East,87,5.0,9.0,91,0.00,,,0.00,,2013-04-15 03:55:00,
2013-04-14 23:03:00,33.0,31.0,29.57,East,87,5.0,9.0,91,0.00,,,0.00,,2013-04-15 04:03:00,
2013-04-14 23:13:00,33.0,31.0,29.57,East,87,5.0,9.0,91,0.00,,,0.00,,2013-04-15 04:13:00,
2013-04-14 23:23:00,34.0,32.0,29.56,ESE,105,6.0,11.0,91,0.00,,,0.00,,2013-04-15 04:23:00,
2013-04-14 23:33:00,34.0,32.0,29.56,ESE,105,6.0,11.0,91,0.00,,,0.00,,2013-04-15 04:33:00,
2013-04-14 23:43:00,34.0,32.0,29.56,ESE,105,6.0,11.0,91,0.00,,,0.00,,2013-04-15 04:43:00,
2013-04-14 23:53:00,35.0,33.0,29.56,SSE,159,8.0,11.0,93,0.00,,,0.00,,2013-04-15 04:53:00,